createdAt,value
2023-12-24T00:00:36.306Z,7.60
2023-12-24T00:04:38.426Z,7.70
2023-12-24T00:08:40.369Z,7.60
2023-12-24T00:12:42.515Z,7.70
2023-12-24T00:16:44.531Z,7.60
2023-12-24T00:20:46.953Z,7.90
2023-12-24T00:24:48.913Z,7.50
2023-12-24T00:28:52.390Z,7.50
2023-12-24T00:32:58.668Z,7.50
2023-12-24T00:37:00.597Z,7.50
2023-12-24T00:41:02.595Z,7.40
2023-12-24T00:45:06.772Z,6.90
2023-12-24T00:49:08.863Z,7.30
2023-12-24T00:53:11.978Z,7.40
2023-12-24T00:57:15.512Z,7.30
2023-12-24T01:01:17.477Z,7.10
2023-12-24T01:05:19.634Z,7.20
2023-12-24T01:09:22.040Z,7.20
2023-12-24T01:13:23.979Z,7.10
2023-12-24T01:17:26.266Z,7.10
2023-12-24T01:21:28.274Z,7.10
2023-12-24T01:25:30.207Z,7.00
2023-12-24T01:29:32.273Z,7.10
2023-12-24T01:33:34.385Z,7.00
2023-12-24T01:37:36.379Z,7.30
2023-12-24T01:41:38.518Z,7.00
2023-12-24T01:45:40.540Z,7.20
2023-12-24T01:49:42.651Z,6.70
2023-12-24T01:53:45.005Z,6.60
2023-12-24T01:57:47.076Z,6.50
2023-12-24T02:01:49.493Z,6.40
2023-12-24T02:05:52.079Z,6.40
2023-12-24T02:09:54.537Z,6.40
2023-12-24T02:13:56.746Z,6.60
2023-12-24T02:18:00.784Z,6.50
2023-12-24T02:22:03.050Z,6.50
2023-12-24T02:26:13.465Z,6.30
2023-12-24T02:30:24.041Z,6.60
2023-12-24T02:34:28.502Z,6.60
2023-12-24T02:38:30.511Z,6.40
2023-12-24T02:42:32.449Z,6.50
2023-12-24T02:46:34.450Z,6.50
2023-12-24T02:50:36.478Z,6.80
2023-12-24T02:54:38.458Z,6.80
2023-12-24T02:58:40.427Z,6.90
2023-12-24T03:02:42.426Z,6.90
2023-12-24T03:06:44.542Z,7.20
2023-12-24T03:10:46.537Z,7.00
2023-12-24T03:14:48.618Z,6.80
2023-12-24T03:18:50.692Z,6.90
2023-12-24T03:22:53.103Z,7.00
2023-12-24T03:26:55.171Z,7.10
2023-12-24T03:30:57.121Z,7.10
2023-12-24T03:34:59.089Z,7.30
2023-12-24T03:39:01.670Z,7.20
2023-12-24T03:43:03.773Z,7.40
2023-12-24T03:47:06.076Z,7.50
2023-12-24T03:51:08.006Z,7.50
2023-12-24T03:55:10.010Z,7.90
2023-12-24T03:59:12.079Z,7.80
2023-12-24T04:03:14.183Z,7.80
2023-12-24T04:07:17.213Z,8.40
2023-12-24T04:11:19.379Z,8.10
2023-12-24T04:15:21.808Z,8.10
2023-12-24T04:19:23.845Z,8.10
2023-12-24T04:23:25.911Z,8.00
2023-12-24T04:27:27.918Z,8.00
2023-12-24T04:31:29.889Z,8.10
2023-12-24T04:35:31.863Z,7.90
2023-12-24T04:39:33.806Z,7.60
2023-12-24T04:43:35.743Z,7.70
2023-12-24T04:47:37.764Z,7.90
2023-12-24T04:51:42.174Z,7.70
2023-12-24T04:55:45.489Z,7.60
2023-12-24T04:59:47.549Z,7.90
2023-12-24T05:03:49.596Z,7.80
2023-12-24T05:07:51.761Z,7.60
2023-12-24T05:11:53.733Z,7.80
2023-12-24T05:15:55.656Z,7.50
2023-12-24T05:19:57.639Z,7.70
2023-12-24T05:23:59.764Z,7.50
2023-12-24T05:28:01.748Z,8.80
2023-12-24T05:32:04.822Z,7.70
2023-12-24T05:36:07.009Z,7.70
2023-12-24T05:40:09.255Z,7.80
2023-12-24T05:44:11.412Z,7.80
2023-12-24T05:48:13.527Z,7.60
2023-12-24T05:52:15.516Z,7.70
2023-12-24T05:56:17.499Z,7.70
2023-12-24T06:00:19.776Z,7.50
2023-12-24T06:04:21.737Z,7.70
2023-12-24T06:08:25.001Z,7.50
2023-12-24T06:12:27.036Z,7.50
2023-12-24T06:16:29.765Z,7.50
2023-12-24T06:20:33.388Z,7.70
2023-12-24T06:24:36.221Z,7.70
2023-12-24T06:28:38.227Z,8.00
2023-12-24T06:32:43.212Z,8.20
2023-12-24T06:36:45.277Z,8.20
2023-12-24T06:40:47.231Z,7.80
2023-12-24T06:44:49.147Z,7.60
2023-12-24T06:48:51.214Z,8.10
2023-12-24T06:52:53.461Z,8.20
2023-12-24T06:56:55.601Z,7.80
2023-12-24T07:00:57.702Z,8.10
2023-12-24T07:04:59.773Z,7.90
2023-12-24T07:09:01.733Z,8.00
2023-12-24T07:13:04.103Z,7.90
2023-12-24T07:17:06.142Z,7.80
2023-12-24T07:21:08.108Z,7.90
2023-12-24T07:25:11.264Z,7.90
2023-12-24T07:29:13.266Z,7.80
2023-12-24T07:33:15.747Z,7.90
2023-12-24T07:37:19.020Z,8.00
2023-12-24T07:41:20.998Z,8.20
2023-12-24T07:45:23.842Z,8.00
2023-12-24T07:49:27.307Z,7.80
2023-12-24T07:53:29.267Z,7.90
2023-12-24T07:57:31.249Z,8.00
2023-12-24T08:01:33.203Z,7.70
2023-12-24T08:05:35.250Z,8.20
2023-12-24T08:09:37.242Z,8.20
2023-12-24T08:13:39.331Z,8.70
2023-12-24T08:17:44.869Z,8.40
2023-12-24T08:21:46.902Z,8.50
2023-12-24T08:25:48.891Z,8.70
2023-12-24T08:29:50.863Z,8.90
2023-12-24T08:33:52.827Z,8.90
2023-12-24T08:37:54.798Z,8.90
2023-12-24T08:41:57.922Z,9.00
2023-12-24T08:46:02.341Z,9.10
2023-12-24T08:50:04.607Z,9.30
2023-12-24T08:54:06.847Z,9.40
2023-12-24T08:58:08.775Z,9.00
2023-12-24T09:02:11.259Z,9.60
2023-12-24T09:06:13.552Z,9.60
2023-12-24T09:10:15.715Z,9.80
2023-12-24T09:14:19.190Z,10.10
2023-12-24T09:18:21.364Z,10.40
2023-12-24T09:22:23.428Z,10.60
2023-12-24T09:26:25.646Z,10.90
2023-12-24T09:30:27.673Z,11.30
2023-12-24T09:34:29.780Z,12.00
2023-12-24T09:38:31.900Z,12.50
2023-12-24T09:42:33.893Z,12.40
2023-12-24T09:46:35.899Z,12.40
2023-12-24T09:50:37.906Z,12.40
2023-12-24T09:54:40.430Z,12.40
2023-12-24T09:58:43.192Z,12.50
2023-12-24T10:02:47.111Z,13.00
2023-12-24T10:06:56.924Z,13.50
2023-12-24T10:11:12.809Z,13.60
2023-12-24T10:15:20.476Z,13.60
2023-12-24T10:19:26.959Z,13.60
2023-12-24T10:23:29.099Z,13.50
2023-12-24T10:27:31.356Z,13.20
2023-12-24T10:31:33.333Z,13.00
2023-12-24T10:35:35.523Z,12.90
2023-12-24T10:39:39.340Z,12.60
2023-12-24T10:43:41.358Z,12.50
2023-12-24T10:47:43.389Z,12.30
2023-12-24T10:51:45.424Z,12.10
2023-12-24T10:56:10.213Z,12.00
2023-12-24T11:00:16.146Z,11.80
2023-12-24T11:04:46.839Z,11.70
2023-12-24T11:08:48.919Z,11.60
2023-12-24T11:13:01.527Z,11.50
2023-12-24T11:17:10.075Z,11.50
2023-12-24T11:21:13.331Z,11.40
2023-12-24T11:25:18.706Z,11.20
2023-12-24T11:29:39.717Z,11.10
2023-12-24T11:33:47.436Z,11.20
2023-12-24T11:37:49.566Z,11.20
2023-12-24T11:41:53.542Z,11.30
2023-12-24T11:45:55.849Z,11.40
2023-12-24T11:49:57.901Z,11.40
2023-12-24T11:54:01.647Z,11.50
2023-12-24T11:58:03.730Z,11.60
2023-12-24T12:02:05.760Z,11.70
2023-12-24T12:06:08.309Z,11.80
2023-12-24T12:10:10.525Z,11.80
2023-12-24T12:14:12.484Z,11.90
2023-12-24T12:18:15.642Z,12.00
2023-12-24T12:22:17.676Z,11.90
2023-12-24T12:26:19.719Z,12.00
2023-12-24T12:30:23.361Z,12.20
2023-12-24T12:34:25.466Z,12.20
2023-12-24T12:38:27.458Z,12.10
2023-12-24T12:42:39.320Z,12.20
2023-12-24T12:46:44.860Z,12.10
2023-12-24T12:50:47.091Z,12.10
2023-12-24T12:54:49.093Z,12.10
2023-12-24T12:58:54.478Z,12.00
2023-12-24T13:03:06.602Z,11.90
2023-12-24T13:07:11.263Z,11.80
2023-12-24T13:11:13.278Z,11.50
2023-12-24T13:15:24.603Z,11.30
2023-12-24T13:19:26.574Z,11.20
2023-12-24T13:23:29.912Z,11.00
2023-12-24T13:27:31.941Z,11.00
2023-12-24T13:31:33.895Z,11.00
2023-12-24T13:35:41.022Z,11.00
2023-12-24T13:39:42.998Z,11.00
2023-12-24T13:43:44.945Z,11.10
2023-12-24T13:47:47.087Z,11.00
2023-12-24T13:51:49.120Z,10.90
2023-12-24T13:55:51.148Z,10.80
2023-12-24T13:59:53.108Z,10.90
2023-12-24T14:03:55.150Z,10.90
2023-12-24T14:07:57.254Z,10.90
2023-12-24T14:11:59.195Z,10.80
2023-12-24T14:16:01.173Z,10.70
2023-12-24T14:20:13.528Z,10.50
2023-12-24T14:24:15.524Z,10.50
2023-12-24T14:28:18.129Z,10.50
2023-12-24T14:32:20.327Z,10.50
2023-12-24T14:36:22.731Z,10.60
2023-12-24T14:40:24.806Z,10.50
2023-12-24T14:44:26.737Z,10.40
2023-12-24T14:48:29.618Z,10.40
2023-12-24T14:52:31.719Z,10.30
2023-12-24T14:56:34.234Z,10.30
2023-12-24T15:00:36.297Z,10.30
2023-12-24T15:04:39.688Z,10.20
2023-12-24T15:08:44.828Z,10.20
2023-12-24T15:12:46.813Z,10.20
2023-12-24T15:16:49.285Z,10.30
2023-12-24T15:20:51.783Z,10.20
2023-12-24T15:24:53.857Z,10.20
2023-12-24T15:28:57.807Z,10.10
2023-12-24T15:33:00.523Z,10.00
2023-12-24T15:37:02.928Z,10.10
2023-12-24T15:41:05.718Z,10.20
2023-12-24T15:45:08.260Z,10.20
2023-12-24T15:49:10.361Z,10.00
2023-12-24T15:53:12.462Z,10.10
2023-12-24T15:57:14.730Z,10.10
2023-12-24T16:01:17.413Z,10.10
2023-12-24T16:05:21.868Z,10.40
2023-12-24T16:09:23.906Z,10.10
2023-12-24T16:13:25.842Z,10.10
2023-12-24T16:17:27.869Z,10.10
2023-12-24T16:21:29.996Z,10.10
2023-12-24T16:25:33.681Z,9.90
2023-12-24T16:29:36.254Z,10.00
2023-12-24T16:33:38.482Z,10.10
2023-12-24T16:37:40.662Z,10.10
2023-12-24T16:41:45.997Z,10.10
2023-12-24T16:45:48.026Z,10.00
2023-12-24T16:49:49.964Z,10.10
2023-12-24T16:53:52.353Z,10.10
2023-12-24T16:57:54.422Z,10.20
2023-12-24T17:01:56.354Z,10.20
2023-12-24T17:05:58.416Z,10.30
2023-12-24T17:10:09.570Z,10.30
2023-12-24T17:14:11.600Z,10.30
2023-12-24T17:18:14.137Z,10.10
2023-12-24T17:22:16.237Z,10.10
2023-12-24T17:26:19.456Z,10.20
2023-12-24T17:30:21.787Z,10.20
2023-12-24T17:34:23.923Z,10.20
2023-12-24T17:38:25.942Z,10.20
2023-12-24T17:42:27.902Z,10.20
2023-12-24T17:46:32.193Z,10.10
2023-12-24T17:50:34.168Z,10.10
2023-12-24T17:54:36.137Z,9.90
2023-12-24T17:58:38.073Z,10.10
2023-12-24T18:02:40.075Z,9.90
2023-12-24T18:06:42.126Z,9.80
2023-12-24T18:10:44.177Z,9.90
2023-12-24T18:14:46.251Z,9.90
2023-12-24T18:18:48.284Z,9.90
2023-12-24T18:22:50.538Z,9.90
2023-12-24T18:26:52.658Z,8.90
2023-12-24T18:30:54.679Z,9.80
2023-12-24T18:34:56.634Z,9.70
2023-12-24T18:38:58.676Z,9.80
2023-12-24T18:43:00.650Z,9.80
2023-12-24T18:47:02.589Z,9.70
2023-12-24T18:51:05.083Z,9.60
2023-12-24T18:55:07.331Z,9.60
2023-12-24T18:59:09.294Z,9.70
2023-12-24T19:03:11.642Z,9.80
2023-12-24T19:07:13.690Z,9.70
2023-12-24T19:11:15.734Z,9.70
2023-12-24T19:15:17.700Z,9.60
2023-12-24T19:19:20.058Z,9.70
2023-12-24T19:23:22.156Z,9.60
2023-12-24T19:27:24.129Z,9.60
2023-12-24T19:31:26.253Z,9.50
2023-12-24T19:35:28.746Z,8.40
2023-12-24T19:39:30.702Z,9.50
2023-12-24T19:43:32.636Z,9.50
2023-12-24T19:47:34.838Z,9.50
2023-12-24T19:51:36.891Z,9.50
2023-12-24T19:55:38.836Z,9.50
2023-12-24T19:59:40.813Z,9.50
2023-12-24T20:03:42.794Z,9.40
2023-12-24T20:07:44.798Z,9.20
2023-12-24T20:11:46.891Z,9.00
2023-12-24T20:15:48.839Z,9.00
2023-12-24T20:19:50.777Z,9.30
2023-12-24T20:23:53.016Z,9.10
2023-12-24T20:27:55.069Z,9.50
2023-12-24T20:31:57.004Z,9.60
2023-12-24T20:35:58.987Z,9.60
2023-12-24T20:40:01.077Z,9.60
2023-12-24T20:44:03.183Z,9.70
2023-12-24T20:48:05.357Z,9.60
2023-12-24T20:52:08.914Z,9.70
2023-12-24T20:56:12.175Z,9.70
2023-12-24T21:00:14.701Z,9.80
2023-12-24T21:04:16.647Z,9.80
2023-12-24T21:08:18.805Z,11.30
2023-12-24T21:12:23.627Z,9.90
2023-12-24T21:16:25.606Z,9.80
2023-12-24T21:20:27.636Z,9.80
2023-12-24T21:24:29.624Z,9.90
2023-12-24T21:28:31.576Z,9.90
2023-12-24T21:32:33.696Z,9.90
2023-12-24T21:36:36.406Z,10.00
2023-12-24T21:40:38.379Z,10.00
2023-12-24T21:44:42.671Z,9.90
2023-12-24T21:48:44.885Z,10.00
2023-12-24T21:52:46.907Z,9.90
2023-12-24T21:56:48.881Z,10.00
2023-12-24T22:00:52.404Z,10.00
2023-12-24T22:04:54.703Z,10.00
2023-12-24T22:08:56.727Z,9.90
2023-12-24T22:12:58.740Z,9.90
2023-12-24T22:17:00.687Z,9.90
2023-12-24T22:21:02.698Z,9.90
2023-12-24T22:25:05.308Z,9.90
2023-12-24T22:29:07.414Z,9.90
2023-12-24T22:33:09.519Z,9.80
2023-12-24T22:37:11.948Z,9.80
2023-12-24T22:41:14.001Z,9.50
2023-12-24T22:45:16.075Z,9.50
2023-12-24T22:49:18.152Z,9.60
2023-12-24T22:53:20.175Z,9.70
2023-12-24T22:57:22.135Z,9.70
2023-12-24T23:01:24.133Z,9.80
2023-12-24T23:05:26.170Z,9.90
2023-12-24T23:09:28.346Z,10.00
2023-12-24T23:13:30.393Z,10.00
2023-12-24T23:17:32.445Z,10.00
2023-12-24T23:21:35.201Z,10.00
2023-12-24T23:25:37.147Z,10.00
2023-12-24T23:29:42.253Z,10.00
2023-12-24T23:33:44.548Z,9.80
2023-12-24T23:37:46.679Z,9.80
2023-12-24T23:41:49.873Z,9.70
2023-12-24T23:45:51.820Z,9.70
2023-12-24T23:49:53.839Z,9.90
2023-12-24T23:53:56.241Z,9.30
2023-12-24T23:57:58.231Z,9.20
